Latest Weather Observations for Tasman Island

IDT60801

Issued at 1:31 am EST Thursday 28 May 2015 (issued every 30 minutes, with the page automatically refreshed every 10 minutes)

About weather observations | Map of weather stations | Latest weather observations for TAS | Other Formats
Station Details ID: 094155 Name: TASMAN ISLAND Lat: -43.24 Lon: 148.00 Height: 240.0 m
Data from the previous 72 hours. | See also: Recent months at Tasman Island
Date/Time
EST
Temp
°C
App
Temp
°C
Dew
Point
Rel
Hum
%
Delta-T
°C
Wind Press
QNH
hPa
Press
MSL
hPa
Rain
since 9 am
mm
Dir
 
Spd
km/h
Gust
km/h
Spd
kts
Gust
kts
28/01:30am 12.1 6.8 8.6 79 1.8 N 26 39 14 21 1010.8 1010.9 0.0
28/01:00am 12.9 6.9 8.8 76 2.1 NNW 30 41 16 22 1011.4 1011.5 0.0
28/12:30am 13.3 6.3 8.6 73 2.4 NNW 35 57 19 31 1011.3 1011.4 0.0
28/12:00am 13.7 7.9 7.9 68 2.9 NNW 28 46 15 25 1011.4 1011.5 0.0
 
Date/Time
EST
Temp
°C
App
Temp
°C
Dew
Point
Rel
Hum
%
Delta-T
°C
Wind Press
QNH
hPa
Press
MSL
hPa
Rain
since 9 am
mm
Dir
 
Spd
km/h
Gust
km/h
Spd
kts
Gust
kts
27/11:41pm 14.1 5.7 7.4 64 3.3 NNW 41 59 22 32 1011.4 1011.5 0.0
27/11:30pm 13.8 6.9 7.1 64 3.3 NNW 33 50 18 27 1011.3 1011.4 0.0
27/11:00pm 14.0 4.5 6.8 62 3.5 NNW 46 69 25 37 1011.0 1011.1 0.0
27/10:44pm 13.7 4.3 7.2 65 3.2 NNW 46 76 25 41 1010.8 1010.9 0.0
27/10:30pm 12.8 6.3 8.1 73 2.4 NNW 32 52 17 28 1011.2 1011.3 0.0
27/10:21pm 12.9 7.2 8.2 73 2.4 N 28 50 15 27 1011.3 1011.4 0.0
27/10:00pm 13.0 8.4 8.1 72 2.5 N 22 41 12 22 1011.4 1011.5 0.0
27/09:47pm 12.8 7.0 8.1 73 2.4 N 28 50 15 27 1011.7 1011.8 0.0
27/09:30pm 12.9 7.5 8.0 72 2.4 N 26 44 14 24 1011.7 1011.8 0.0
27/09:00pm 13.1 7.6 7.5 69 2.8 NNW 26 56 14 30 1011.9 1012.0 0.0
27/08:45pm 13.1 7.2 7.3 68 2.9 NNW 28 57 15 31 1012.0 1012.1 0.0
27/08:30pm 12.9 7.4 7.6 70 2.6 NNW 26 43 14 23 1012.0 1012.1 0.0
27/08:00pm 12.8 6.3 8.1 73 2.4 N 32 46 17 25 1012.2 1012.3 0.0
27/07:30pm 12.5 5.1 8.4 76 2.1 N 37 52 20 28 1012.0 1012.1 0.0
27/07:00pm 12.8 4.2 8.3 74 2.3 N 43 52 23 28 1012.0 1012.1 0.0
27/06:30pm 11.9 4.4 9.5 85 1.2 N 39 50 21 27 1012.1 1012.2 0.0
27/06:00pm 12.1 4.6 9.3 83 1.4 N 39 50 21 27 1012.1 1012.2 0.0
27/05:30pm 11.9 5.2 9.5 85 1.2 N 35 44 19 24 1012.5 1012.6 0.0
27/05:00pm 11.9 3.6 9.3 84 1.3 N 43 52 23 28 1012.4 1012.5 0.0
27/04:30pm 11.8 3.5 9.5 86 1.2 N 43 50 23 27 1012.6 1012.7 0.0
27/04:00pm 12.1 3.8 9.3 83 1.4 N 43 57 23 31 1012.8 1012.9 0.0
27/03:30pm 12.1 3.1 8.8 80 1.7 N 46 57 25 31 1012.9 1013.0 0.0
27/03:00pm 12.2 3.6 8.9 80 1.7 N 44 57 24 31 1013.0 1013.1 0.0
27/02:39pm 12.1 4.4 8.8 80 1.7 N 39 57 21 31 1013.1 1013.2 0.0
27/02:30pm 11.7 3.3 8.9 83 1.4 N 43 54 23 29 1013.2 1013.3 0.0
27/02:00pm 11.4 3.6 8.3 81 1.5 N 39 54 21 29 1013.4 1013.5 0.0
27/01:47pm 11.4 4.8 8.4 82 1.5 N 33 52 18 28 1013.7 1013.9 0.0
27/01:30pm 11.3 3.9 8.5 83 1.4 NNE 37 48 20 26 1014.0 1014.2 0.0
27/01:14pm 11.3 4.2 8.2 81 1.5 N 35 57 19 31 1014.0 1014.2 0.0
27/01:00pm 11.4 4.3 7.9 79 1.7 N 35 52 19 28 1014.2 1014.4 0.0
27/12:37pm 11.4 3.6 8.1 80 1.6 N 39 59 21 32 1014.8 1014.9 0.0
27/12:30pm 11.2 4.1 7.9 80 1.6 N 35 52 19 28 1014.7 1014.8 0.0
27/12:00pm 11.0 2.3 7.9 81 1.5 N 43 61 23 33 1015.1 1015.2 0.0
27/11:53am 10.9 2.3 8.1 83 1.4 N 43 63 23 34 1015.1 1015.2 0.0
27/11:30am 10.8 2.0 7.9 82 1.4 N 44 59 24 32 1015.6 1015.7 0.0
27/11:00am 10.8 2.1 7.9 82 1.4 N 43 54 23 29 1016.0 1016.1 0.0
27/10:40am 11.0 3.9 7.9 81 1.5 N 35 56 19 30 1016.2 1016.3 0.0
27/10:30am 11.1 3.2 7.8 80 1.6 N 39 57 21 31 1016.2 1016.3 0.0
27/10:00am 10.8 1.5 7.7 81 1.5 N 46 65 25 35 1016.4 1016.5 0.0
27/09:49am 10.8 2.0 7.9 82 1.4 N 44 65 24 35 1016.6 1016.7 0.0
27/09:30am 10.5 1.7 8.1 85 1.2 N 44 57 24 31 1017.0 1017.1 0.0
27/09:00am 10.4 1.6 8.0 85 1.2 N 44 56 24 30 1017.1 1017.2 0.0
27/08:30am 10.1 1.5 8.2 88 0.9 N 43 56 23 30 1017.3 1017.5 0.0
27/08:00am 10.0 2.0 7.4 84 1.3 N 39 48 21 26 1017.5 1017.7 0.0
27/07:30am 9.6 2.5 8.0 90 0.8 N 35 43 19 23 1017.7 1017.9 0.0
27/07:00am 9.6 2.8 7.5 87 1.0 N 33 44 18 24 1018.0 1018.2 0.0
27/06:30am 9.4 2.8 7.7 89 0.8 N 32 44 17 24 1018.1 1018.3 0.0
27/06:00am 9.7 2.5 7.6 87 1.0 N 35 54 19 29 1018.2 1018.4 0.0
27/05:30am 9.7 2.7 8.5 92 0.6 N 35 44 19 24 1018.7 1018.9 0.0
27/05:00am 9.7 3.8 8.9 95 0.4 N 30 43 16 23 1019.2 1019.3 0.0
27/04:30am 9.9 4.1 9.3 96 0.3 N 30 39 16 21 1019.5 1019.6 0.0
27/04:00am 10.0 3.7 9.1 94 0.4 N 32 39 17 21 1019.9 1020.0 0.0
27/03:30am 10.1 4.3 9.5 96 0.3 N 30 46 16 25 1020.3 1020.4 0.0
27/03:00am 10.6 4.4 10.1 97 0.3 N 33 43 18 23 1020.9 1021.1 0.0
27/02:30am 10.4 4.3 9.9 97 0.3 N 32 41 17 22 1021.2 1021.4 0.0
27/02:00am 10.2 4.1 9.6 96 0.3 N 32 43 17 23 1021.3 1021.5 0.0
27/01:30am 10.0 5.3 9.4 96 0.3 NNE 24 33 13 18 1021.5 1021.7 0.0
27/01:00am 10.0 5.0 9.4 96 0.3 N 26 32 14 17 1021.9 1022.1 0.0
27/12:30am 9.9 4.4 9.1 95 0.4 N 28 33 15 18 1022.3 1022.5 0.0
27/12:00am 10.1 5.5 9.5 96 0.3 NNE 24 30 13 16 1022.5 1022.7 0.0
 
Date/Time
EST
Temp
°C
App
Temp
°C
Dew
Point
Rel
Hum
%
Delta-T
°C
Wind Press
QNH
hPa
Press
MSL
hPa
Rain
since 9 am
mm
Dir
 
Spd
km/h
Gust
km/h
Spd
kts
Gust
kts
26/11:30pm 9.8 5.4 8.9 94 0.4 NNE 22 28 12 15 1022.9 1023.1 0.0
26/11:00pm 9.5 5.5 8.3 92 0.6 NNE 19 24 10 13 1023.4 1023.5 0.0
26/10:30pm 9.3 6.0 7.9 91 0.7 NNE 15 20 8 11 1023.7 1023.8 0.0
26/10:00pm 9.4 6.0 7.7 89 0.8 NNE 15 20 8 11 1023.9 1024.0 0.0
26/09:30pm 9.2 6.5 7.5 89 0.8 NNE 11 15 6 8 1024.1 1024.2 0.0
26/09:00pm 9.1 7.1 7.2 88 0.9 NE 7 9 4 5 1024.2 1024.4 0.0
26/08:30pm 9.2 7.4 7.0 86 1.0 NE 6 7 3 4 1024.4 1024.6 0.0
26/08:00pm 9.2 8.1 7.0 86 1.0 WSW 2 7 1 4 1024.5 1024.7 0.0
26/07:30pm 9.4 8.3 7.0 85 1.1 WSW 2 2 1 1 1024.8 1025.0 0.0
26/07:00pm 9.2 8.5 7.0 86 1.0 CALM 0 2 0 1 1024.8 1025.0 0.0
26/06:30pm 9.2 7.7 7.0 86 1.0 S 4 6 2 3 1024.7 1024.9 0.0
26/06:00pm 9.1 7.2 6.9 86 1.0 SSW 6 9 3 5 1024.6 1024.8 0.0
26/05:30pm 9.6 7.6 7.0 84 1.2 SSW 7 13 4 7 1024.8 1025.0 0.0
26/05:00pm 9.7 7.0 7.3 85 1.1 SSW 11 15 6 8 1024.8 1025.0 0.0
26/04:30pm 9.8 6.7 7.4 85 1.2 SSW 13 19 7 10 1024.8 1025.0 0.0
26/04:00pm 9.7 6.3 7.5 86 1.1 SSW 15 20 8 11 1024.8 1025.0 0.0
26/03:30pm 10.1 7.1 7.9 86 1.1 SSW 13 20 7 11 1024.9 1025.1 0.0
26/03:00pm 10.2 7.8 8.6 90 0.8 SSW 11 17 6 9 1024.8 1025.0 0.0
26/02:30pm 10.2 7.1 9.0 92 0.6 SSW 15 24 8 13 1024.9 1025.1 0.0
26/02:00pm 10.6 7.0 8.5 87 1.0 SW 17 26 9 14 1024.9 1025.1 0.0
26/01:30pm 11.2 8.7 8.2 82 1.5 SW 11 22 6 12 1025.1 1025.3 0.0
26/01:00pm 12.0 9.7 9.0 82 1.5 SW 11 24 6 13 1025.3 1025.5 0.0
26/12:30pm 11.1 8.2 8.1 82 1.5 SW 13 30 7 16 1025.5 1025.7 0.0
26/12:00pm 11.0 7.3 8.1 82 1.4 SW 17 26 9 14 1025.7 1025.9 0.0
26/11:30am 10.7 8.1 7.6 81 1.5 SW 11 26 6 14 1026.0 1026.2 0.0
26/11:00am 10.6 7.2 7.7 82 1.4 SSW 15 28 8 15 1026.3 1026.5 0.0
26/10:30am 10.4 7.4 7.5 82 1.4 SW 13 30 7 16 1026.4 1026.6 0.0
26/10:00am 10.4 7.3 7.3 81 1.5 SW 13 37 7 20 1026.2 1026.4 0.0
26/09:30am 10.1 6.6 7.0 81 1.5 SW 15 32 8 17 1026.2 1026.4 0.0
26/09:00am 10.0 5.7 7.1 82 1.4 SW 19 41 10 22 1026.1 1026.3 1.4
26/08:30am 9.8 4.5 6.9 82 1.4 SW 24 41 13 22 1025.9 1026.1 1.4
26/08:00am 9.9 4.3 7.0 82 1.4 SW 26 46 14 25 1025.8 1026.0 1.4
26/07:32am 9.9 3.9 7.2 83 1.3 SW 28 48 15 26 1025.7 1025.9 1.4
26/07:30am 10.0 4.4 7.3 83 1.3 SW 26 48 14 26 1025.7 1025.9 1.4
26/07:00am 9.9 5.1 7.5 85 1.2 SSW 22 46 12 25 1025.4 1025.6 1.4
26/06:30am 9.9 4.1 7.8 87 1.0 SW 28 48 15 26 1025.2 1025.4 1.4
26/06:06am 9.8 4.0 7.9 88 0.9 SW 28 46 15 25 1025.0 1025.2 1.4
26/06:00am 9.8 4.8 8.1 89 0.8 SW 24 41 13 22 1025.0 1025.2 1.4
26/05:36am 9.9 3.8 8.3 90 0.8 SW 30 48 16 26 1024.8 1025.0 1.4
26/05:30am 10.0 4.3 8.4 90 0.8 SW 28 46 15 25 1024.7 1024.9 1.4
26/05:00am 9.8 4.6 8.9 94 0.4 SW 26 54 14 29 1024.7 1024.9 1.4
26/04:36am 9.8 4.4 9.5 98 0.2 SW 28 50 15 27 1024.8 1025.0 1.4
26/04:30am 9.9 6.7 9.8 99 0.1 SW 17 44 9 24 1024.8 1025.0 1.4
26/04:00am 9.9 7.0 9.8 99 0.1 SW 15 32 8 17 1024.8 1025.0 1.4
26/03:30am 10.0 8.3 9.7 98 0.2 WSW 9 22 5 12 1024.9 1025.1 1.2
26/03:00am 9.7 7.7 8.6 93 0.5 W 9 26 5 14 1024.9 1025.1 0.6
26/02:30am 10.0 7.9 8.1 88 0.9 WSW 9 22 5 12 1025.1 1025.3 0.0
26/02:00am 10.5 9.0 6.6 77 1.8 NW 4 11 2 6 1025.1 1025.3 0.0
26/01:30am 10.6 8.6 6.4 75 2.0 WNW 6 13 3 7 1024.9 1025.1 0.0
26/01:00am 10.9 8.9 6.3 73 2.2 WSW 6 17 3 9 1024.9 1025.1 0.0
26/12:30am 11.4 9.4 6.1 70 2.5 WSW 6 20 3 11 1024.8 1025.0 0.0
26/12:00am 11.6 7.5 6.1 69 2.6 WNW 17 32 9 17 1024.7 1024.9 0.0
 
Date/Time
EST
Temp
°C
App
Temp
°C
Dew
Point
Rel
Hum
%
Delta-T
°C
Wind Press
QNH
hPa
Press
MSL
hPa
Rain
since 9 am
mm
Dir
 
Spd
km/h
Gust
km/h
Spd
kts
Gust
kts
25/11:30pm 11.8 6.7 5.9 67 2.8 WNW 22 37 12 20 1024.5 1024.7 0.0
25/11:00pm 11.9 6.0 5.8 66 2.9 NW 26 35 14 19 1024.4 1024.6 0.0
25/10:30pm 11.5 5.5 5.4 66 2.9 NW 26 39 14 21 1024.6 1024.8 0.0
25/10:00pm 12.0 6.5 5.9 66 2.9 NW 24 41 13 22 1024.7 1024.9 0.0
25/09:30pm 11.0 5.7 5.1 67 2.7 NW 22 33 12 18 1024.8 1025.0 0.0
25/09:00pm 10.5 5.6 4.9 68 2.6 NW 20 30 11 16 1025.0 1025.2 0.0
25/08:30pm 11.3 6.3 4.7 64 3.0 NW 20 30 11 16 1025.3 1025.5 0.0
25/08:00pm 11.0 6.6 4.7 65 2.9 NNW 17 30 9 16 1025.4 1025.6 0.0
25/07:30pm 10.8 7.1 4.7 66 2.8 NW 13 19 7 10 1025.4 1025.6 0.0
25/07:00pm 11.2 6.9 5.1 66 2.8 NW 17 28 9 15 1025.4 1025.6 0.0
25/06:30pm 10.1 6.5 4.9 70 2.4 NW 13 19 7 10 1025.5 1025.7 0.0
25/06:00pm 9.8 6.5 4.8 71 2.3 WNW 11 19 6 10 1025.6 1025.8 0.0
25/05:30pm 9.8 7.0 5.0 72 2.2 WNW 9 17 5 9 1025.4 1025.6 0.0
25/05:00pm 9.9 7.5 5.1 72 2.2 NW 7 13 4 7 1025.4 1025.6 0.0
25/04:30pm 9.8 7.4 5.2 73 2.1 NW 7 11 4 6 1025.4 1025.6 0.0
25/04:00pm 10.3 7.9 5.1 70 2.4 NW 7 13 4 7 1025.4 1025.6 0.0
25/03:30pm 11.8 9.5 5.7 66 2.9 WNW 7 11 4 6 1025.6 1025.8 0.0
25/03:00pm 11.9 9.5 5.3 64 3.1 WNW 7 11 4 6 1025.7 1025.9 0.0
25/02:30pm 11.8 9.2 5.9 67 2.8 WNW 9 15 5 8 1025.7 1025.9 0.0
25/02:00pm 12.0 9.4 5.9 66 2.9 NW 9 19 5 10 1025.8 1026.0 0.0
25/01:30pm 11.9 9.3 6.2 68 2.7 WNW 9 19 5 10 1025.9 1026.1 0.0
25/01:00pm 11.8 9.2 6.3 69 2.6 WNW 9 15 5 8 1026.1 1026.3 0.0
25/12:30pm 11.4 8.8 6.1 70 2.5 WNW 9 15 5 8 1026.3 1026.5 0.0
25/12:00pm 11.3 9.2 5.8 69 2.6 WNW 6 13 3 7 1026.6 1026.8 0.0
25/11:30am 11.5 9.8 6.0 69 2.6 W 4 17 2 9 1027.0 1027.2 0.0
25/11:00am 11.2 9.5 6.1 71 2.4 E 4 9 2 5 1027.4 1027.6 0.0
25/10:30am 10.1 7.9 5.3 72 2.2 W 6 15 3 8 1027.7 1027.8 0.0
25/10:00am 9.8 8.1 5.8 76 1.8 WNW 4 11 2 6 1027.6 1027.7 0.0
25/09:30am 8.6 6.2 4.4 75 1.9 WSW 6 20 3 11 1027.6 1027.7 0.0
25/09:00am 8.8 6.3 4.6 75 1.9 WNW 7 15 4 8 1027.7 1027.8 0.0
25/08:30am 8.6 5.7 4.4 75 1.9 WNW 9 28 5 15 1027.7 1027.8 0.0
25/08:00am 8.3 5.3 3.9 74 1.9 WNW 9 19 5 10 1027.7 1027.8 0.0
25/07:30am 8.1 5.0 3.8 74 1.9 WNW 9 20 5 11 1027.7 1027.8 0.0
25/07:00am 8.2 5.2 4.0 75 1.8 NW 9 20 5 11 1027.4 1027.6 0.0
25/06:30am 7.9 4.5 4.1 77 1.7 WNW 11 20 6 11 1027.3 1027.5 0.0
25/06:00am 7.9 4.5 4.1 77 1.7 WNW 11 17 6 9 1027.3 1027.5 0.0
25/05:30am 7.9 4.9 4.1 77 1.7 WNW 9 17 5 9 1027.3 1027.5 0.0
25/05:00am 7.8 4.8 4.0 77 1.7 NW 9 20 5 11 1027.2 1027.4 0.0
25/04:30am 7.6 4.5 3.8 77 1.7 NW 9 19 5 10 1027.2 1027.4 0.0
25/04:00am 7.5 5.0 3.7 77 1.6 WNW 6 13 3 7 1027.1 1027.3 0.0
25/03:30am 7.4 4.7 3.6 77 1.6 NW 7 15 4 8 1027.3 1027.5 0.0
25/03:00am 7.5 4.5 3.9 78 1.6 NW 9 20 5 11 1027.6 1027.7 0.0
25/02:30am 7.2 4.4 3.3 76 1.7 WNW 7 11 4 6 1027.8 1028.0 0.0
25/02:00am 7.6 4.9 3.8 77 1.6 NW 7 15 4 8 1027.8 1028.0 0.0

Other Formats:

Comma delimited format used in spreadsheet applications
http://www.bom.gov.au/fwo/IDT60801/IDT60801.95986.axf

JavaScript Object Notation format (JSON) in row-major order
http://www.bom.gov.au/fwo/IDT60801/IDT60801.95986.json